createdAt,value
2022-09-05T00:00:11.841Z,1015.74
2022-09-05T00:01:09.620Z,1015.77
2022-09-05T00:02:09.618Z,1015.70
2022-09-05T00:03:09.657Z,1015.73
2022-09-05T00:04:24.921Z,1015.73
2022-09-05T00:05:10.569Z,1015.76
2022-09-05T00:06:09.550Z,1015.74
2022-09-05T00:07:09.551Z,1015.74
2022-09-05T00:08:09.545Z,1015.74
2022-09-05T00:09:09.655Z,1015.78
2022-09-05T00:10:09.539Z,1015.78
2022-09-05T00:11:41.598Z,1015.75
2022-09-05T00:12:10.472Z,1015.74
2022-09-05T00:13:09.484Z,1015.73
2022-09-05T00:14:09.460Z,1015.74
2022-09-05T00:15:16.627Z,1015.78
2022-09-05T00:16:10.483Z,1015.76
2022-09-05T00:17:09.411Z,1015.77
2022-09-05T00:22:07.096Z,1015.74
2022-09-05T00:24:17.725Z,1015.73
2022-09-05T00:24:18.660Z,1015.73
2022-09-05T00:24:27.646Z,1015.76
2022-09-05T00:24:28.181Z,1015.72
2022-09-05T00:24:30.241Z,1015.80
2022-09-05T00:24:30.242Z,1015.74
2022-09-05T00:26:10.301Z,1015.77
2022-09-05T00:27:09.282Z,1015.73
2022-09-05T00:28:25.983Z,1015.78
2022-09-05T00:29:10.264Z,1015.75
2022-09-05T00:31:05.530Z,1015.74
2022-09-05T00:31:54.527Z,1015.69
2022-09-05T00:32:10.280Z,1015.74
2022-09-05T00:33:16.786Z,1015.70
2022-09-05T00:34:10.209Z,1015.73
2022-09-05T00:35:09.194Z,1015.73
2022-09-05T00:36:09.181Z,1015.72
2022-09-05T00:37:09.146Z,1015.65
2022-09-05T00:38:09.149Z,1015.72
2022-09-05T00:39:09.120Z,1015.64
2022-09-05T00:40:18.128Z,1015.65
2022-09-05T00:41:10.114Z,1015.67
2022-09-05T00:42:09.091Z,1015.70
2022-09-05T00:43:09.078Z,1015.71
2022-09-05T00:44:09.083Z,1015.64
2022-09-05T00:45:14.528Z,1015.69
2022-09-05T00:46:10.197Z,1015.70
2022-09-05T00:47:09.009Z,1015.71
2022-09-05T00:48:09.020Z,1015.72
2022-09-05T00:49:09.013Z,1015.70
2022-09-05T00:50:08.990Z,1015.76
2022-09-05T00:51:08.990Z,1015.70
2022-09-05T00:52:08.991Z,1015.66
2022-09-05T00:53:08.952Z,1015.68
2022-09-05T00:54:08.925Z,1015.68
2022-09-05T00:55:08.919Z,1015.72
2022-09-05T00:56:08.918Z,1015.73
2022-09-05T00:57:08.888Z,1015.65
2022-09-05T00:58:09.921Z,1015.71
2022-09-05T00:59:08.858Z,1015.72
2022-09-05T01:00:10.785Z,1015.71
2022-09-05T01:01:21.184Z,1015.70
2022-09-05T01:02:10.009Z,1015.69
2022-09-05T01:03:08.906Z,1015.70
2022-09-05T01:04:08.840Z,1015.75
2022-09-05T01:05:08.797Z,1015.67
2022-09-05T01:06:08.790Z,1015.73
2022-09-05T01:07:08.768Z,1015.73
2022-09-05T01:08:08.754Z,1015.66
2022-09-05T01:09:08.731Z,1015.67
2022-09-05T01:10:08.738Z,1015.69
2022-09-05T01:11:08.740Z,1015.72
2022-09-05T01:12:08.701Z,1015.69
2022-09-05T01:13:08.702Z,1015.66
2022-09-05T01:14:12.778Z,1015.69
2022-09-05T01:15:08.667Z,1015.74
2022-09-05T01:16:08.771Z,1015.71
2022-09-05T01:17:08.638Z,1015.66
2022-09-05T01:18:08.630Z,1015.65
2022-09-05T01:19:08.630Z,1015.67
2022-09-05T01:20:19.751Z,1015.67
2022-09-05T01:21:09.597Z,1015.75
2022-09-05T01:22:08.591Z,1015.67
2022-09-05T01:23:08.962Z,1015.66
2022-09-05T01:24:08.565Z,1015.71
2022-09-05T01:25:08.524Z,1015.70
2022-09-05T01:26:08.516Z,1015.70
2022-09-05T01:27:08.546Z,1015.74
2022-09-05T01:29:13.517Z,1015.69
2022-09-05T01:29:18.641Z,1015.70
2022-09-05T01:30:09.469Z,1015.70
2022-09-05T01:31:08.494Z,1015.69
2022-09-05T01:32:08.444Z,1015.83
2022-09-05T01:33:08.467Z,1015.82
2022-09-05T01:34:08.411Z,1015.81
2022-09-05T01:35:08.397Z,1015.79
2022-09-05T01:36:08.409Z,1015.79
2022-09-05T01:37:08.383Z,1015.82
2022-09-05T01:38:09.376Z,1015.86
2022-09-05T01:40:10.459Z,1015.85
2022-09-05T01:40:14.729Z,1015.81
2022-09-05T01:41:19.335Z,1015.90
2022-09-05T01:42:09.320Z,1015.89
2022-09-05T01:43:08.320Z,1015.84
2022-09-05T01:44:08.296Z,1015.88
2022-09-05T01:45:08.280Z,1015.83
2022-09-05T01:46:11.620Z,1015.84
2022-09-05T01:47:08.242Z,1015.67
2022-09-05T01:48:08.237Z,1015.78
2022-09-05T01:49:08.239Z,1015.77
2022-09-05T01:50:08.248Z,1015.77
2022-09-05T01:51:28.247Z,1015.79
2022-09-05T01:52:09.186Z,1015.75
2022-09-05T01:53:08.177Z,1015.76
2022-09-05T01:54:21.186Z,1015.68
2022-09-05T01:55:09.180Z,1015.68
2022-09-05T01:56:11.500Z,1015.72
2022-09-05T01:57:08.107Z,1015.70
2022-09-05T01:58:08.109Z,1015.70
2022-09-05T01:59:08.108Z,1015.73
2022-09-05T02:00:08.093Z,1015.75
2022-09-05T02:01:25.487Z,1015.72
2022-09-05T02:02:09.089Z,1015.73
2022-09-05T02:03:08.073Z,1015.75
2022-09-05T02:04:08.035Z,1015.74
2022-09-05T02:05:08.036Z,1015.76
2022-09-05T02:06:08.017Z,1015.77
2022-09-05T02:07:30.515Z,1015.74
2022-09-05T02:08:08.975Z,1015.71
2022-09-05T02:09:07.974Z,1015.69
2022-09-05T02:10:07.975Z,1015.74
2022-09-05T02:11:07.937Z,1015.71
2022-09-05T02:12:07.915Z,1015.74
2022-09-05T02:13:07.934Z,1015.74
2022-09-05T02:14:07.918Z,1015.70
2022-09-05T02:15:07.898Z,1015.73
2022-09-05T02:16:07.947Z,1015.72
2022-09-05T02:17:07.856Z,1015.69
2022-09-05T02:18:08.888Z,1015.72
2022-09-05T02:19:07.857Z,1015.75
2022-09-05T02:20:07.834Z,1015.75
2022-09-05T02:21:07.818Z,1015.74
2022-09-05T02:22:07.794Z,1015.72
2022-09-05T02:23:29.444Z,1015.72
2022-09-05T02:24:08.803Z,1015.71
2022-09-05T02:26:00.624Z,1015.69
2022-09-05T02:26:08.743Z,1015.69
2022-09-05T02:27:07.744Z,1015.68
2022-09-05T02:28:07.727Z,1015.71
2022-09-05T02:29:07.714Z,1015.68
2022-09-05T02:30:07.737Z,1015.68
2022-09-05T02:31:19.595Z,1015.67
2022-09-05T02:32:08.665Z,1015.67
2022-09-05T02:33:07.677Z,1015.71
2022-09-05T02:34:07.655Z,1015.70
2022-09-05T02:35:07.633Z,1015.71
2022-09-05T02:36:07.658Z,1015.73
2022-09-05T02:37:07.616Z,1015.75
2022-09-05T02:39:07.533Z,1015.74
2022-09-05T02:45:03.485Z,1015.75
2022-09-05T02:45:06.540Z,1015.75
2022-09-05T02:45:07.258Z,1015.75
2022-09-05T02:45:14.649Z,1015.72
2022-09-05T02:45:19.111Z,1015.74
2022-09-05T02:45:20.007Z,1015.74
2022-09-05T02:45:26.659Z,1015.76
2022-09-05T02:46:08.590Z,1015.72
2022-09-05T02:47:07.565Z,1015.72
2022-09-05T02:48:14.931Z,1015.75
2022-09-05T02:49:41.869Z,1015.68
2022-09-05T02:53:30.116Z,1015.72
2022-09-05T02:56:37.605Z,1015.79
2022-09-05T02:57:25.370Z,1015.80
2022-09-05T02:57:37.440Z,1015.88
2022-09-05T02:57:38.336Z,1015.76
2022-09-05T02:57:38.988Z,1015.78
2022-09-05T02:57:41.591Z,1015.81
2022-09-05T02:58:04.118Z,1015.77
2022-09-05T02:58:09.075Z,1015.78
2022-09-05T02:59:10.036Z,1015.77
2022-09-05T03:00:07.326Z,1015.75
2022-09-05T03:01:07.377Z,1015.72
2022-09-05T03:02:25.720Z,1015.74
2022-09-05T03:03:08.344Z,1015.82
2022-09-05T03:04:07.294Z,1015.83
2022-09-05T03:05:07.265Z,1015.83
2022-09-05T03:06:07.246Z,1015.81
2022-09-05T03:07:07.232Z,1015.83
2022-09-05T03:08:07.195Z,1015.82
2022-09-05T03:09:16.753Z,1015.82
2022-09-05T03:10:08.223Z,1015.84
2022-09-05T03:11:07.178Z,1015.79
2022-09-05T03:12:17.867Z,1015.87
2022-09-05T03:13:08.156Z,1015.89
2022-09-05T03:14:07.125Z,1015.85
2022-09-05T03:15:19.404Z,1015.83
2022-09-05T03:16:08.102Z,1015.89
2022-09-05T03:17:07.098Z,1015.88
2022-09-05T03:18:20.858Z,1015.88
2022-09-05T03:19:08.077Z,1015.91
2022-09-05T03:20:07.055Z,1015.85
2022-09-05T03:21:09.632Z,1015.83
2022-09-05T03:22:07.055Z,1015.87
2022-09-05T03:23:07.025Z,1015.80
2022-09-05T03:24:07.010Z,1015.81
2022-09-05T03:25:06.980Z,1015.84
2022-09-05T03:26:08.983Z,1015.91
2022-09-05T03:27:06.960Z,1015.80
2022-09-05T03:28:06.941Z,1015.82
2022-09-05T03:29:06.961Z,1015.85
2022-09-05T03:30:06.922Z,1015.87
2022-09-05T03:31:07.032Z,1015.82
2022-09-05T03:32:07.891Z,1015.82
2022-09-05T03:33:06.871Z,1015.82
2022-09-05T03:34:06.886Z,1015.80
2022-09-05T03:35:08.890Z,1015.85
2022-09-05T03:36:06.838Z,1015.77
2022-09-05T03:37:06.845Z,1015.82
2022-09-05T03:38:06.809Z,1015.83
2022-09-05T03:39:06.820Z,1015.76
2022-09-05T03:40:16.011Z,1015.84
2022-09-05T03:41:07.770Z,1015.84
2022-09-05T03:42:14.491Z,1015.81
2022-09-05T03:43:07.770Z,1015.87
2022-09-05T03:44:06.737Z,1015.86
2022-09-05T03:45:06.742Z,1015.87
2022-09-05T03:46:06.719Z,1015.87
2022-09-05T03:47:06.715Z,1015.84
2022-09-05T03:48:23.157Z,1015.88
2022-09-05T03:51:51.490Z,1015.84
2022-09-05T03:56:08.974Z,1015.86
2022-09-05T03:56:30.983Z,1015.82
2022-09-05T03:57:10.413Z,1015.83
2022-09-05T03:57:14.440Z,1015.89
2022-09-05T03:57:15.325Z,1015.77
2022-09-05T03:57:16.677Z,1015.86
2022-09-05T03:57:17.659Z,1015.83
2022-09-05T03:57:33.701Z,1015.87
2022-09-05T03:58:16.260Z,1015.81
2022-09-05T03:59:07.540Z,1015.82
2022-09-05T04:00:06.541Z,1015.81
2022-09-05T04:01:17.560Z,1015.78
2022-09-05T04:04:54.905Z,1015.83
2022-09-05T04:08:06.516Z,1015.83
2022-09-05T04:08:11.269Z,1015.80
2022-09-05T04:08:17.536Z,1015.80
2022-09-05T04:08:18.539Z,1015.77
2022-09-05T04:08:24.412Z,1015.82
2022-09-05T04:08:41.910Z,1015.81
2022-09-05T04:09:07.542Z,1015.82
2022-09-05T04:10:06.508Z,1015.79
2022-09-05T04:11:06.488Z,1015.86
2022-09-05T04:12:06.366Z,1015.91
2022-09-05T04:13:06.359Z,1015.91
2022-09-05T04:14:06.374Z,1015.80
2022-09-05T04:15:06.355Z,1015.81
2022-09-05T04:16:06.310Z,1015.81
2022-09-05T04:17:08.511Z,1015.82
2022-09-05T04:18:06.312Z,1015.87
2022-09-05T04:19:06.314Z,1015.89
2022-09-05T04:20:06.271Z,1015.86
2022-09-05T04:21:06.256Z,1015.84
2022-09-05T04:22:06.464Z,1015.85
2022-09-05T04:23:06.242Z,1015.83
2022-09-05T04:24:06.241Z,1015.88
2022-09-05T04:25:06.230Z,1015.89
2022-09-05T04:26:11.451Z,1015.91
2022-09-05T04:27:07.194Z,1015.92
2022-09-05T04:28:06.174Z,1015.95
2022-09-05T04:29:06.158Z,1015.93
2022-09-05T04:30:35.330Z,1015.93
2022-09-05T04:31:07.144Z,1015.94
2022-09-05T04:32:18.129Z,1015.93
2022-09-05T04:33:07.112Z,1015.91
2022-09-05T04:34:06.102Z,1015.91
2022-09-05T04:35:06.075Z,1015.93
2022-09-05T04:36:17.884Z,1015.92
2022-09-05T04:37:07.057Z,1015.96
2022-09-05T04:38:06.018Z,1015.95
2022-09-05T04:39:06.038Z,1015.95
2022-09-05T04:40:06.123Z,1015.94
2022-09-05T04:41:05.997Z,1015.94
2022-09-05T04:42:05.985Z,1015.94
2022-09-05T04:43:05.983Z,1015.99
2022-09-05T04:44:05.958Z,1015.99
2022-09-05T04:45:05.939Z,1015.97
2022-09-05T04:46:06.040Z,1015.96
2022-09-05T04:47:05.921Z,1015.99
2022-09-05T04:48:05.897Z,1015.96
2022-09-05T04:49:05.900Z,1015.97
2022-09-05T04:50:05.895Z,1015.98
2022-09-05T04:51:05.981Z,1016.00
2022-09-05T04:52:05.853Z,1016.05
2022-09-05T04:53:05.850Z,1016.04
2022-09-05T04:54:05.818Z,1016.02
2022-09-05T04:55:05.849Z,1016.06
2022-09-05T04:56:05.815Z,1015.98
2022-09-05T04:57:13.753Z,1015.99
2022-09-05T04:58:06.759Z,1016.02
2022-09-05T05:01:40.708Z,1016.09
2022-09-05T05:06:01.373Z,1016.08
2022-09-05T05:06:03.161Z,1016.01
2022-09-05T05:06:04.050Z,1015.99
2022-09-05T05:06:12.917Z,1016.10
2022-09-05T05:06:15.941Z,1016.09
2022-09-05T05:06:16.122Z,1016.09
2022-09-05T05:06:38.193Z,1016.11
2022-09-05T05:07:08.036Z,1016.17
2022-09-05T05:08:05.806Z,1016.16
2022-09-05T05:09:05.641Z,1016.16
2022-09-05T05:11:19.972Z,1016.20
2022-09-05T05:17:53.890Z,1016.18
2022-09-05T05:17:57.935Z,1016.20
2022-09-05T05:17:58.767Z,1016.20
2022-09-05T05:18:04.179Z,1016.23
2022-09-05T05:18:08.291Z,1016.24
2022-09-05T05:18:11.322Z,1016.18
2022-09-05T05:18:14.076Z,1016.17
2022-09-05T05:18:37.594Z,1016.20
2022-09-05T05:19:18.569Z,1016.26
2022-09-05T05:20:42.199Z,1016.26
2022-09-05T05:21:06.505Z,1016.24
2022-09-05T05:22:05.448Z,1016.25
2022-09-05T05:23:07.974Z,1016.27
2022-09-05T05:24:05.437Z,1016.29
2022-09-05T05:25:05.415Z,1016.20
2022-09-05T05:26:05.404Z,1016.21
2022-09-05T05:27:05.382Z,1016.18
2022-09-05T05:28:10.946Z,1016.27
2022-09-05T05:29:06.346Z,1016.28
2022-09-05T05:30:05.376Z,1016.22
2022-09-05T05:31:05.348Z,1016.24
2022-09-05T05:32:05.345Z,1016.22
2022-09-05T05:33:05.318Z,1016.32
2022-09-05T05:34:09.779Z,1016.30
2022-09-05T05:35:06.290Z,1016.30
2022-09-05T05:36:05.263Z,1016.30
2022-09-05T05:37:05.268Z,1016.29
2022-09-05T05:38:05.260Z,1016.28
2022-09-05T05:39:05.252Z,1016.29
2022-09-05T05:40:05.284Z,1016.26
2022-09-05T05:41:05.227Z,1016.27
2022-09-05T05:42:20.910Z,1016.28
2022-09-05T05:43:06.208Z,1016.23
2022-09-05T05:44:05.168Z,1016.26
2022-09-05T05:45:05.176Z,1016.26
2022-09-05T05:46:05.873Z,1016.24
2022-09-05T05:47:05.148Z,1016.23
2022-09-05T05:48:05.105Z,1016.31
2022-09-05T05:49:05.109Z,1016.28
2022-09-05T05:50:05.100Z,1016.26
2022-09-05T05:51:06.074Z,1016.33
2022-09-05T05:52:05.044Z,1016.26
2022-09-05T05:53:05.034Z,1016.32
2022-09-05T05:54:05.024Z,1016.32
2022-09-05T05:55:24.736Z,1016.32
2022-09-05T05:56:06.018Z,1016.36
2022-09-05T05:57:14.792Z,1016.32
2022-09-05T05:58:05.971Z,1016.35
2022-09-05T05:59:04.987Z,1016.35
2022-09-05T06:00:04.954Z,1016.42
2022-09-05T06:01:05.047Z,1016.40
2022-09-05T06:02:05.043Z,1016.43
2022-09-05T06:03:26.430Z,1016.42
2022-09-05T06:04:05.898Z,1016.41
2022-09-05T06:05:04.909Z,1016.46
2022-09-05T06:06:04.883Z,1016.46
2022-09-05T06:07:04.877Z,1016.47
2022-09-05T06:10:52.583Z,1016.48
2022-09-05T06:13:44.653Z,1016.46
2022-09-05T06:14:49.648Z,1016.49
2022-09-05T06:14:52.839Z,1016.47
2022-09-05T06:15:02.196Z,1016.44
2022-09-05T06:15:04.288Z,1016.48
2022-09-05T06:15:06.123Z,1016.41
2022-09-05T06:15:12.190Z,1016.45
2022-09-05T06:16:06.655Z,1016.39
2022-09-05T06:17:04.751Z,1016.41
2022-09-05T06:18:04.728Z,1016.42
2022-09-05T06:19:04.711Z,1016.41
2022-09-05T06:22:05.588Z,1016.39
2022-09-05T06:22:10.060Z,1016.43
2022-09-05T06:22:13.799Z,1016.34
2022-09-05T06:23:05.642Z,1016.35
2022-09-05T06:24:04.644Z,1016.44
2022-09-05T06:25:17.048Z,1016.42
2022-09-05T06:26:05.606Z,1016.43
2022-09-05T06:27:04.623Z,1016.40
2022-09-05T06:28:19.606Z,1016.41
2022-09-05T06:29:05.563Z,1016.37
2022-09-05T06:30:04.571Z,1016.42
2022-09-05T06:31:30.577Z,1016.37
2022-09-05T06:32:05.611Z,1016.36
2022-09-05T06:33:04.513Z,1016.39
2022-09-05T06:34:04.548Z,1016.42
2022-09-05T06:35:04.534Z,1016.42
2022-09-05T06:36:04.770Z,1016.39
2022-09-05T06:37:04.482Z,1016.40
2022-09-05T06:38:04.466Z,1016.44
2022-09-05T06:39:04.569Z,1016.45
2022-09-05T06:40:04.560Z,1016.46
2022-09-05T06:41:04.408Z,1016.40
2022-09-05T06:42:04.426Z,1016.44
2022-09-05T06:43:04.390Z,1016.45
2022-09-05T06:44:04.389Z,1016.44
2022-09-05T06:45:20.159Z,1016.44
2022-09-05T06:46:05.421Z,1016.46
2022-09-05T06:47:24.120Z,1016.43
2022-09-05T06:48:06.105Z,1016.43
2022-09-05T06:49:30.322Z,1016.48
2022-09-05T06:50:24.491Z,1016.48
2022-09-05T06:51:08.289Z,1016.44
2022-09-05T06:52:16.548Z,1016.53
2022-09-05T06:53:14.426Z,1016.48
2022-09-05T06:54:05.242Z,1016.43
2022-09-05T06:55:04.253Z,1016.48
2022-09-05T06:56:04.212Z,1016.46
2022-09-05T06:57:04.237Z,1016.46
2022-09-05T06:58:04.220Z,1016.48
2022-09-05T06:59:09.003Z,1016.47
2022-09-05T07:00:05.197Z,1016.41
2022-09-05T07:01:04.264Z,1016.44
2022-09-05T07:02:04.302Z,1016.44
2022-09-05T07:03:04.135Z,1016.35
2022-09-05T07:04:49.274Z,1016.46
2022-09-05T07:05:37.059Z,1016.45
2022-09-05T07:06:05.099Z,1016.42
2022-09-05T07:07:06.500Z,1016.41
2022-09-05T07:08:15.761Z,1016.40
2022-09-05T07:09:05.031Z,1016.43
2022-09-05T07:10:21.939Z,1016.44
2022-09-05T07:11:16.070Z,1016.44
2022-09-05T07:12:05.000Z,1016.44
2022-09-05T07:13:04.023Z,1016.51
2022-09-05T07:14:03.985Z,1016.48
2022-09-05T07:15:08.685Z,1016.44
2022-09-05T07:16:05.033Z,1016.43
2022-09-05T07:17:03.929Z,1016.43
2022-09-05T07:18:10.603Z,1016.46
2022-09-05T07:19:04.908Z,1016.49
2022-09-05T07:20:03.891Z,1016.50
2022-09-05T07:21:18.167Z,1016.45
2022-09-05T07:22:04.893Z,1016.47
2022-09-05T07:23:49.306Z,1016.48
2022-09-05T07:24:10.294Z,1016.46
2022-09-05T07:25:04.823Z,1016.42
2022-09-05T07:26:03.858Z,1016.47
2022-09-05T07:27:03.812Z,1016.48
2022-09-05T07:28:29.056Z,1016.46
2022-09-05T07:29:04.784Z,1016.46
2022-09-05T07:30:03.802Z,1016.42
2022-09-05T07:31:03.819Z,1016.44
2022-09-05T07:32:03.872Z,1016.49
2022-09-05T07:33:03.730Z,1016.53
2022-09-05T07:34:03.724Z,1016.50
2022-09-05T07:35:04.715Z,1016.40
2022-09-05T07:36:03.721Z,1016.46
2022-09-05T07:37:14.043Z,1016.42
2022-09-05T07:38:04.660Z,1016.46
2022-09-05T07:39:28.201Z,1016.38
2022-09-05T07:40:24.756Z,1016.49
2022-09-05T07:41:04.628Z,1016.50
2022-09-05T07:42:03.621Z,1016.46
2022-09-05T07:43:09.786Z,1016.52
2022-09-05T07:44:04.610Z,1016.50
2022-09-05T07:45:03.566Z,1016.53
2022-09-05T07:46:03.612Z,1016.52
2022-09-05T07:47:03.548Z,1016.57
2022-09-05T07:48:03.529Z,1016.58
2022-09-05T07:49:03.521Z,1016.59
2022-09-05T07:52:39.374Z,1016.61
2022-09-05T07:56:47.857Z,1016.59
2022-09-05T07:56:50.755Z,1016.65
2022-09-05T07:56:51.098Z,1016.62
2022-09-05T07:56:51.883Z,1016.66
2022-09-05T07:56:52.761Z,1016.66
2022-09-05T07:57:01.479Z,1016.65
2022-09-05T07:58:04.411Z,1016.57
2022-09-05T07:59:03.378Z,1016.62
2022-09-05T08:00:03.374Z,1016.61
2022-09-05T08:01:03.519Z,1016.56
2022-09-05T08:02:03.337Z,1016.58
2022-09-05T08:03:03.327Z,1016.58
2022-09-05T08:04:05.465Z,1016.55
2022-09-05T08:05:03.510Z,1016.54
2022-09-05T08:06:03.297Z,1016.54
2022-09-05T08:07:45.910Z,1016.54
2022-09-05T08:08:04.287Z,1016.55
2022-09-05T08:09:21.484Z,1016.55
2022-09-05T08:10:07.014Z,1016.55
2022-09-05T08:11:24.657Z,1016.53
2022-09-05T08:12:09.670Z,1016.49
2022-09-05T08:13:23.799Z,1016.52
2022-09-05T08:14:43.369Z,1016.54
2022-09-05T08:15:04.168Z,1016.55
2022-09-05T08:16:10.701Z,1016.55
2022-09-05T08:17:04.226Z,1016.55
2022-09-05T08:18:03.156Z,1016.54
2022-09-05T08:19:03.126Z,1016.57
2022-09-05T08:20:09.206Z,1016.51
2022-09-05T08:21:04.131Z,1016.53
2022-09-05T08:22:03.099Z,1016.45
2022-09-05T08:23:03.066Z,1016.49
2022-09-05T08:24:13.319Z,1016.51
2022-09-05T08:25:04.083Z,1016.53
2022-09-05T08:26:03.069Z,1016.48
2022-09-05T08:27:03.016Z,1016.49
2022-09-05T08:28:03.032Z,1016.42
2022-09-05T08:29:03.000Z,1016.46
2022-09-05T08:30:25.782Z,1016.44
2022-09-05T08:31:04.009Z,1016.45
2022-09-05T08:32:02.966Z,1016.42
2022-09-05T08:33:11.358Z,1016.46
2022-09-05T08:34:03.941Z,1016.38
2022-09-05T08:35:02.940Z,1016.46
2022-09-05T08:36:02.941Z,1016.40
2022-09-05T08:37:02.905Z,1016.43
2022-09-05T08:38:02.886Z,1016.44
2022-09-05T08:39:02.873Z,1016.37
2022-09-05T08:40:10.859Z,1016.39
2022-09-05T08:41:03.847Z,1016.38
2022-09-05T08:42:06.071Z,1016.37
2022-09-05T08:46:06.452Z,1016.41
2022-09-05T08:46:37.682Z,1016.40
2022-09-05T08:46:39.831Z,1016.32
2022-09-05T08:46:42.191Z,1016.30
2022-09-05T08:47:03.827Z,1016.39
2022-09-05T08:48:02.792Z,1016.28
2022-09-05T08:49:12.493Z,1016.39
2022-09-05T08:50:03.748Z,1016.34
2022-09-05T08:51:02.742Z,1016.34
2022-09-05T08:52:02.721Z,1016.34
2022-09-05T08:53:02.687Z,1016.31
2022-09-05T08:54:03.704Z,1016.28
2022-09-05T08:55:07.037Z,1016.28
2022-09-05T08:56:03.668Z,1016.29
2022-09-05T08:57:02.648Z,1016.21
2022-09-05T08:58:02.633Z,1016.25
2022-09-05T08:59:31.571Z,1016.22
2022-09-05T09:00:19.179Z,1016.27
2022-09-05T09:01:04.574Z,1016.21
2022-09-05T09:02:45.503Z,1016.19
2022-09-05T09:03:03.881Z,1016.17
2022-09-05T09:04:02.593Z,1016.22
2022-09-05T09:05:03.134Z,1016.14
2022-09-05T09:06:13.671Z,1016.12
2022-09-05T09:07:42.400Z,1016.13
2022-09-05T09:08:03.509Z,1016.12
2022-09-05T09:09:05.617Z,1016.13
2022-09-05T09:10:02.475Z,1016.11
2022-09-05T09:11:02.498Z,1016.14
2022-09-05T09:12:02.436Z,1016.12
2022-09-05T09:13:02.434Z,1016.09
2022-09-05T09:14:02.450Z,1016.14
2022-09-05T09:15:02.408Z,1016.10
2022-09-05T09:16:02.432Z,1016.12
2022-09-05T09:17:02.367Z,1016.11
2022-09-05T09:18:05.643Z,1016.11
2022-09-05T09:19:03.343Z,1016.16
2022-09-05T09:20:02.351Z,1016.10
2022-09-05T09:21:02.350Z,1016.13
2022-09-05T09:22:02.318Z,1016.06
2022-09-05T09:23:02.298Z,1016.09
2022-09-05T09:24:02.286Z,1016.09
2022-09-05T09:25:11.274Z,1016.12
2022-09-05T09:26:03.266Z,1016.08
2022-09-05T09:27:02.252Z,1016.07
2022-09-05T09:28:50.482Z,1016.06
2022-09-05T09:29:03.214Z,1016.07
2022-09-05T09:30:02.217Z,1016.05
2022-09-05T09:31:02.254Z,1016.10
2022-09-05T09:32:02.188Z,1016.04
2022-09-05T09:33:02.172Z,1016.01
2022-09-05T09:34:02.144Z,1016.02
2022-09-05T09:35:06.147Z,1016.00
2022-09-05T09:36:04.140Z,1016.04
2022-09-05T09:37:03.117Z,1015.99
2022-09-05T09:38:02.107Z,1016.02
2022-09-05T09:39:07.092Z,1016.05
2022-09-05T09:40:03.171Z,1015.95
2022-09-05T09:41:02.979Z,1015.93
2022-09-05T09:42:02.058Z,1015.96
2022-09-05T09:43:06.383Z,1015.94
2022-09-05T09:44:03.043Z,1015.98
2022-09-05T09:45:22.921Z,1015.98
2022-09-05T09:46:03.076Z,1016.02
2022-09-05T09:47:02.026Z,1016.01
2022-09-05T09:48:01.977Z,1015.94
2022-09-05T09:49:01.959Z,1015.99
2022-09-05T09:50:01.960Z,1015.99
2022-09-05T09:51:01.958Z,1015.98
2022-09-05T09:52:01.914Z,1016.01
2022-09-05T09:53:01.905Z,1015.98
2022-09-05T09:54:01.886Z,1015.97
2022-09-05T09:55:01.883Z,1016.00
2022-09-05T09:56:06.123Z,1015.98
2022-09-05T09:57:02.867Z,1015.99
2022-09-05T09:58:01.865Z,1016.00
2022-09-05T09:59:01.824Z,1015.95
2022-09-05T10:00:01.827Z,1016.00
2022-09-05T10:01:01.816Z,1015.97
2022-09-05T10:02:24.028Z,1015.97
2022-09-05T10:05:27.507Z,1015.96
2022-09-05T10:05:41.477Z,1015.90
2022-09-05T10:10:35.141Z,1015.85
2022-09-05T10:10:43.853Z,1015.93
2022-09-05T10:10:44.653Z,1015.89
2022-09-05T10:10:45.729Z,1015.90
2022-09-05T10:10:46.169Z,1015.89
2022-09-05T10:10:46.672Z,1015.94
2022-09-05T10:12:03.165Z,1015.89
2022-09-05T10:13:08.246Z,1015.84
2022-09-05T10:14:02.647Z,1015.77
2022-09-05T10:15:27.749Z,1015.84
2022-09-05T10:16:06.104Z,1015.84
2022-09-05T10:17:01.609Z,1015.80
2022-09-05T10:18:01.588Z,1015.75
2022-09-05T10:19:01.576Z,1015.83
2022-09-05T10:20:10.825Z,1015.79
2022-09-05T10:21:16.044Z,1015.70
2022-09-05T10:23:02.527Z,1015.69
2022-09-05T10:24:01.514Z,1015.66
2022-09-05T10:25:19.473Z,1015.68
2022-09-05T10:26:02.491Z,1015.65
2022-09-05T10:27:01.488Z,1015.62
2022-09-05T10:28:01.468Z,1015.59
2022-09-05T10:29:37.004Z,1015.57
2022-09-05T10:30:03.380Z,1015.60
2022-09-05T10:33:11.877Z,1015.66
2022-09-05T10:35:09.524Z,1015.66
2022-09-05T10:35:13.521Z,1015.61
2022-09-05T10:35:13.602Z,1015.59
2022-09-05T10:35:17.785Z,1015.58
2022-09-05T10:36:02.427Z,1015.59
2022-09-05T10:37:01.323Z,1015.55
2022-09-05T10:38:10.156Z,1015.60
2022-09-05T10:39:02.307Z,1015.60
2022-09-05T10:40:01.391Z,1015.57
2022-09-05T10:41:19.917Z,1015.59
2022-09-05T10:42:03.520Z,1015.59
2022-09-05T10:43:01.541Z,1015.56
2022-09-05T10:44:01.259Z,1015.56
2022-09-05T10:45:01.225Z,1015.56
2022-09-05T10:46:01.313Z,1015.47
2022-09-05T10:47:01.738Z,1015.53
2022-09-05T10:48:13.415Z,1015.53
2022-09-05T10:49:04.742Z,1015.53
2022-09-05T10:50:01.176Z,1015.52
2022-09-05T10:51:01.395Z,1015.52
2022-09-05T10:52:04.084Z,1015.44
2022-09-05T10:53:02.143Z,1015.46
2022-09-05T10:54:01.127Z,1015.43
2022-09-05T10:55:13.617Z,1015.46
2022-09-05T10:56:02.086Z,1015.40
2022-09-05T10:57:01.086Z,1015.41
2022-09-05T10:58:01.125Z,1015.41
2022-09-05T11:01:49.932Z,1015.35
2022-09-05T11:02:20.818Z,1015.42
2022-09-05T11:02:23.659Z,1015.41
2022-09-05T11:02:28.290Z,1015.36
2022-09-05T11:03:02.121Z,1015.43
2022-09-05T11:04:01.116Z,1015.43
2022-09-05T11:05:01.002Z,1015.34
2022-09-05T11:06:09.171Z,1015.37
2022-09-05T11:07:01.953Z,1015.34
2022-09-05T11:08:00.951Z,1015.33
2022-09-05T11:09:00.941Z,1015.24
2022-09-05T11:10:00.930Z,1015.22
2022-09-05T11:11:00.914Z,1015.19
2022-09-05T11:12:00.904Z,1015.26
2022-09-05T11:13:00.898Z,1015.24
2022-09-05T11:14:00.864Z,1015.23
2022-09-05T11:15:00.856Z,1015.23
2022-09-05T11:16:04.920Z,1015.23
2022-09-05T11:17:01.843Z,1015.23
2022-09-05T11:18:00.827Z,1015.19
2022-09-05T11:19:00.792Z,1015.18
2022-09-05T11:20:00.782Z,1015.24
2022-09-05T11:21:00.772Z,1015.16
2022-09-05T11:22:13.683Z,1015.13
2022-09-05T11:23:01.756Z,1015.05
2022-09-05T11:24:00.732Z,1015.02
2022-09-05T11:25:00.733Z,1015.04
2022-09-05T11:26:00.715Z,1015.03
2022-09-05T11:27:23.377Z,1015.02
2022-09-05T11:28:01.683Z,1015.00
2022-09-05T11:29:01.089Z,1014.99
2022-09-05T11:30:00.655Z,1015.01
2022-09-05T11:31:00.672Z,1014.97
2022-09-05T11:36:29.600Z,1014.94
2022-09-05T11:38:42.241Z,1014.99
2022-09-05T11:39:46.114Z,1014.97
2022-09-05T11:39:52.770Z,1014.98
2022-09-05T11:40:04.116Z,1014.92
2022-09-05T11:40:05.031Z,1014.98
2022-09-05T11:40:09.967Z,1014.90
2022-09-05T11:40:10.957Z,1014.94
2022-09-05T11:40:31.615Z,1014.94
2022-09-05T11:41:11.595Z,1015.01
2022-09-05T11:42:01.598Z,1014.93
2022-09-05T11:43:00.506Z,1014.97
2022-09-05T11:44:24.709Z,1014.97
2022-09-05T11:45:01.463Z,1014.99
2022-09-05T11:46:00.513Z,1015.01
2022-09-05T11:47:28.324Z,1015.00
2022-09-05T11:48:01.426Z,1014.99
2022-09-05T11:49:00.436Z,1014.97
2022-09-05T11:50:00.393Z,1015.02
2022-09-05T11:51:00.386Z,1015.05
2022-09-05T11:52:00.385Z,1015.02
2022-09-05T11:53:00.356Z,1015.08
2022-09-05T11:54:00.358Z,1015.06
2022-09-05T11:55:00.340Z,1015.04
2022-09-05T11:56:00.325Z,1015.08
2022-09-05T11:57:18.046Z,1015.07
2022-09-05T11:58:01.314Z,1015.03
2022-09-05T11:59:05.120Z,1015.06
2022-09-05T12:00:33.252Z,1015.02
2022-09-05T12:01:38.200Z,1015.05
2022-09-05T12:02:08.255Z,1015.02
2022-09-05T12:03:01.247Z,1015.00
2022-09-05T12:04:01.089Z,1014.90
2022-09-05T12:05:48.364Z,1014.95
2022-09-05T12:06:01.302Z,1014.90
2022-09-05T12:07:00.523Z,1015.03
2022-09-05T12:08:00.178Z,1014.91
2022-09-05T12:09:00.156Z,1014.97